createdAt,value
2019-01-29T00:01:33.707Z,4.17
2019-01-29T00:04:00.459Z,3.67
2019-01-29T00:06:27.204Z,7.62
2019-01-29T00:08:53.976Z,5.53
2019-01-29T00:11:20.745Z,5.50
2019-01-29T00:13:47.512Z,5.65
2019-01-29T00:16:14.257Z,7.72
2019-01-29T00:18:41.020Z,5.53
2019-01-29T00:21:07.753Z,6.20
2019-01-29T00:23:34.627Z,7.00
2019-01-29T00:26:01.372Z,3.00
2019-01-29T00:28:28.132Z,5.00
2019-01-29T00:30:54.872Z,4.12
2019-01-29T00:33:21.636Z,4.30
2019-01-29T00:35:48.372Z,5.78
2019-01-29T00:38:15.140Z,4.40
2019-01-29T00:40:41.904Z,6.85
2019-01-29T00:43:08.754Z,5.67
2019-01-29T00:45:35.548Z,8.33
2019-01-29T00:48:02.311Z,6.72
2019-01-29T00:50:29.068Z,9.23
2019-01-29T00:52:55.821Z,6.53
2019-01-29T00:55:22.564Z,4.92
2019-01-29T00:57:49.324Z,5.17
2019-01-29T01:00:20.190Z,5.62
2019-01-29T01:02:47.007Z,6.12
2019-01-29T01:05:13.919Z,5.00
2019-01-29T01:07:40.672Z,5.95
2019-01-29T01:10:09.185Z,3.60
2019-01-29T01:12:36.021Z,6.30
2019-01-29T01:15:02.816Z,6.87
2019-01-29T01:17:29.588Z,3.93
2019-01-29T01:19:56.336Z,5.62
2019-01-29T01:22:23.092Z,5.40
2019-01-29T01:24:49.848Z,3.67
2019-01-29T01:27:16.580Z,4.77
2019-01-29T01:29:43.346Z,7.03
2019-01-29T01:32:10.096Z,6.10
2019-01-29T01:34:36.860Z,5.33
2019-01-29T01:37:03.604Z,6.97
2019-01-29T01:39:30.352Z,7.70
2019-01-29T01:41:57.096Z,5.80
2019-01-29T01:44:23.880Z,6.37
2019-01-29T01:46:50.624Z,4.95
2019-01-29T01:49:17.384Z,3.47
2019-01-29T01:51:44.132Z,6.03
2019-01-29T01:54:10.896Z,7.70
2019-01-29T01:56:37.629Z,4.92
2019-01-29T01:59:04.385Z,6.17
2019-01-29T02:01:31.156Z,7.25
2019-01-29T02:03:57.956Z,3.50
2019-01-29T02:06:24.704Z,5.03
2019-01-29T02:08:51.471Z,6.50
2019-01-29T02:11:18.199Z,9.33
2019-01-29T02:13:44.972Z,5.60
2019-01-29T02:16:11.704Z,7.40
2019-01-29T02:18:38.571Z,8.60
2019-01-29T02:21:05.301Z,5.37
2019-01-29T02:23:32.055Z,8.90
2019-01-29T02:25:58.800Z,7.03
2019-01-29T02:28:25.559Z,6.80
2019-01-29T02:30:52.288Z,6.90
2019-01-29T02:33:19.058Z,5.27
2019-01-29T02:35:45.796Z,5.45
2019-01-29T02:38:12.588Z,4.25
2019-01-29T02:40:39.337Z,6.70
2019-01-29T02:43:06.087Z,13.13
2019-01-29T02:45:32.838Z,9.30
2019-01-29T02:47:59.592Z,5.53
2019-01-29T02:50:26.331Z,7.25
2019-01-29T02:52:53.075Z,8.53
2019-01-29T02:55:19.853Z,5.57
2019-01-29T02:57:46.594Z,6.47
2019-01-29T03:00:17.300Z,5.28
2019-01-29T03:02:44.053Z,4.43
2019-01-29T03:05:10.842Z,6.70
2019-01-29T03:07:37.592Z,4.70
2019-01-29T03:10:06.015Z,8.03
2019-01-29T03:12:32.756Z,9.20
2019-01-29T03:14:59.513Z,7.28
2019-01-29T03:17:26.280Z,3.83
2019-01-29T03:19:53.046Z,4.23
2019-01-29T03:22:19.781Z,8.63
2019-01-29T03:24:46.540Z,8.17
2019-01-29T03:27:13.281Z,8.35
2019-01-29T03:29:40.049Z,7.10
2019-01-29T03:32:06.794Z,9.88
2019-01-29T03:34:33.653Z,7.43
2019-01-29T03:37:00.392Z,9.08
2019-01-29T03:39:27.156Z,7.50
2019-01-29T03:41:53.891Z,8.45
2019-01-29T03:44:20.653Z,6.63
2019-01-29T03:46:47.386Z,7.92
2019-01-29T03:49:14.196Z,9.28
2019-01-29T03:51:40.933Z,8.90
2019-01-29T03:54:07.697Z,10.05
2019-01-29T03:56:34.424Z,8.00
2019-01-29T03:59:01.172Z,10.38
2019-01-29T04:01:27.936Z,8.40
2019-01-29T04:03:54.663Z,8.18
2019-01-29T04:06:21.412Z,9.00
2019-01-29T04:08:48.199Z,7.60
2019-01-29T04:11:14.954Z,9.60
2019-01-29T04:13:41.685Z,8.80
2019-01-29T04:16:08.459Z,8.47
2019-01-29T04:18:35.203Z,10.82
2019-01-29T04:21:01.975Z,8.35
2019-01-29T04:23:28.712Z,7.30
2019-01-29T04:25:55.460Z,6.70
2019-01-29T04:28:22.195Z,11.80
2019-01-29T04:30:48.952Z,8.37
2019-01-29T04:33:15.684Z,8.50
2019-01-29T04:35:42.436Z,12.45
2019-01-29T04:38:09.193Z,6.27
2019-01-29T04:40:35.941Z,10.18
2019-01-29T04:43:02.678Z,8.10
2019-01-29T04:45:29.445Z,9.37
2019-01-29T04:47:56.172Z,9.70
2019-01-29T04:52:23.204Z,9.63
2019-01-29T04:54:49.974Z,9.80
2019-01-29T04:57:16.737Z,8.83
2019-01-29T04:59:43.492Z,9.33
2019-01-29T05:02:10.252Z,7.80
2019-01-29T05:04:37.011Z,9.47
2019-01-29T05:07:03.765Z,8.80
2019-01-29T05:09:30.585Z,5.30
2019-01-29T05:11:57.272Z,11.15
2019-01-29T05:14:24.011Z,9.40
2019-01-29T05:16:50.773Z,6.67
2019-01-29T05:19:17.577Z,11.28
2019-01-29T05:21:44.470Z,7.47
2019-01-29T05:24:11.216Z,8.33
2019-01-29T05:26:37.977Z,13.80
2019-01-29T05:29:04.719Z,9.13
2019-01-29T05:31:31.496Z,8.43
2019-01-29T05:33:58.224Z,7.62
2019-01-29T05:36:25.124Z,10.90
2019-01-29T05:38:51.876Z,7.03
2019-01-29T05:41:18.639Z,6.60
2019-01-29T05:43:45.378Z,11.33
2019-01-29T05:46:12.223Z,6.20
2019-01-29T05:48:38.964Z,8.53
2019-01-29T05:51:05.736Z,9.97
2019-01-29T05:53:32.496Z,8.90
2019-01-29T05:55:59.325Z,9.00
2019-01-29T05:58:26.158Z,11.83
2019-01-29T06:00:52.945Z,10.60
2019-01-29T06:03:19.816Z,9.60
2019-01-29T06:05:46.597Z,12.20
2019-01-29T06:08:13.749Z,9.83
2019-01-29T06:10:40.580Z,9.20
2019-01-29T06:13:07.363Z,8.17
2019-01-29T06:15:34.144Z,11.25
2019-01-29T06:18:00.967Z,7.55
2019-01-29T06:20:27.919Z,12.33
2019-01-29T06:22:55.860Z,11.10
2019-01-29T06:25:22.658Z,9.80
2019-01-29T06:27:49.494Z,10.63
2019-01-29T06:30:17.301Z,11.15
2019-01-29T06:32:44.108Z,10.50
2019-01-29T06:35:12.233Z,11.23
2019-01-29T06:37:39.746Z,9.63
2019-01-29T06:40:08.048Z,12.60
2019-01-29T06:42:34.814Z,8.45
2019-01-29T06:45:01.595Z,9.07
2019-01-29T06:47:29.395Z,13.80
2019-01-29T06:49:56.170Z,15.03
2019-01-29T06:52:22.987Z,9.75
2019-01-29T06:54:49.740Z,10.53
2019-01-29T06:57:16.601Z,17.70
2019-01-29T06:59:43.374Z,10.60
2019-01-29T07:02:10.776Z,13.70
2019-01-29T07:04:37.589Z,12.13
2019-01-29T07:07:04.376Z,12.82
2019-01-29T07:09:31.361Z,11.77
2019-01-29T07:12:00.393Z,14.35
2019-01-29T07:14:27.200Z,10.68
2019-01-29T07:17:01.588Z,14.70
2019-01-29T07:19:33.892Z,11.73
2019-01-29T07:22:00.687Z,24.00
2019-01-29T07:24:27.504Z,12.60
2019-01-29T07:26:54.301Z,10.27
2019-01-29T07:29:21.067Z,12.75
2019-01-29T07:31:48.112Z,11.37
2019-01-29T07:34:14.939Z,11.75
2019-01-29T07:36:41.749Z,12.77
2019-01-29T07:39:09.676Z,14.53
2019-01-29T07:41:36.461Z,16.48
2019-01-29T07:44:03.270Z,13.97
2019-01-29T07:46:30.090Z,13.32
2019-01-29T07:48:56.848Z,16.97
2019-01-29T07:51:23.663Z,13.95
2019-01-29T07:53:50.448Z,16.35
2019-01-29T07:56:17.480Z,13.95
2019-01-29T07:58:44.280Z,15.97
2019-01-29T08:01:11.035Z,15.05
2019-01-29T08:03:38.235Z,18.50
2019-01-29T08:06:04.773Z,21.62
2019-01-29T08:08:31.570Z,15.40
2019-01-29T08:10:58.316Z,15.80
2019-01-29T08:13:25.098Z,16.57
2019-01-29T08:15:51.980Z,15.60
2019-01-29T08:18:20.527Z,15.57
2019-01-29T08:20:45.811Z,14.90
2019-01-29T08:23:12.618Z,15.08
2019-01-29T08:25:47.405Z,13.00
2019-01-29T08:28:06.908Z,12.23
2019-01-29T08:30:33.739Z,12.00
2019-01-29T08:33:00.671Z,12.23
2019-01-29T08:35:27.468Z,14.87
2019-01-29T08:37:54.307Z,13.90
2019-01-29T08:40:21.081Z,16.10
2019-01-29T08:42:47.904Z,15.20
2019-01-29T08:45:14.821Z,13.87
2019-01-29T08:47:41.516Z,15.73
2019-01-29T08:50:11.060Z,16.27
2019-01-29T08:52:37.934Z,14.93
2019-01-29T08:55:10.637Z,12.50
2019-01-29T08:57:31.870Z,13.78
2019-01-29T08:59:58.886Z,14.60
2019-01-29T09:02:25.670Z,14.05
2019-01-29T09:04:52.417Z,13.50
2019-01-29T09:07:19.201Z,14.47
2019-01-29T09:09:46.010Z,12.90
2019-01-29T09:12:12.749Z,13.88
2019-01-29T09:14:39.513Z,13.20
2019-01-29T09:17:06.264Z,20.20
2019-01-29T09:19:33.018Z,26.17
2019-01-29T09:21:59.755Z,17.83
2019-01-29T09:24:26.513Z,15.87
2019-01-29T09:26:53.256Z,17.30
2019-01-29T09:29:20.016Z,22.90
2019-01-29T09:31:46.787Z,17.65
2019-01-29T09:34:13.544Z,14.45
2019-01-29T09:36:40.302Z,15.30
2019-01-29T09:39:09.252Z,18.80
2019-01-29T09:41:36.000Z,18.30
2019-01-29T09:44:02.795Z,16.57
2019-01-29T09:46:29.524Z,15.60
2019-01-29T09:48:56.271Z,19.02
2019-01-29T09:51:23.018Z,17.10
2019-01-29T09:53:49.856Z,15.53
2019-01-29T09:56:16.658Z,16.70
2019-01-29T09:58:43.430Z,15.90
2019-01-29T10:01:10.185Z,18.20
2019-01-29T10:03:36.989Z,18.73
2019-01-29T10:06:03.720Z,12.90
2019-01-29T10:08:30.477Z,11.70
2019-01-29T10:10:57.293Z,13.07
2019-01-29T10:13:23.998Z,15.00
2019-01-29T10:15:50.740Z,17.30
2019-01-29T10:18:17.521Z,20.00
2019-01-29T10:20:44.273Z,15.40
2019-01-29T10:23:11.057Z,13.60
2019-01-29T10:25:38.241Z,16.13
2019-01-29T10:28:04.531Z,11.10
2019-01-29T10:30:31.301Z,12.87
2019-01-29T10:32:58.053Z,20.00
2019-01-29T10:35:25.116Z,12.67
2019-01-29T10:37:51.852Z,18.90
2019-01-29T10:40:19.932Z,16.60
2019-01-29T10:42:46.669Z,14.00
2019-01-29T10:45:14.940Z,16.97
2019-01-29T10:47:41.691Z,20.53
2019-01-29T10:50:10.224Z,16.90
2019-01-29T10:52:36.998Z,15.53
2019-01-29T10:55:04.753Z,19.73
2019-01-29T10:57:31.490Z,15.67
2019-01-29T10:59:58.269Z,14.33
2019-01-29T11:02:25.012Z,15.17
2019-01-29T11:04:51.771Z,20.27
2019-01-29T11:07:18.513Z,21.77
2019-01-29T11:09:45.255Z,23.80
2019-01-29T11:12:11.994Z,17.50
2019-01-29T11:14:38.744Z,17.83
2019-01-29T11:17:05.492Z,18.40
2019-01-29T11:19:32.268Z,12.77
2019-01-29T11:21:59.007Z,17.47
2019-01-29T11:24:25.772Z,18.50
2019-01-29T11:26:52.504Z,14.17
2019-01-29T11:29:19.278Z,15.80
2019-01-29T11:31:46.016Z,15.93
2019-01-29T11:34:12.796Z,20.07
2019-01-29T11:36:39.693Z,23.17
2019-01-29T11:39:08.516Z,19.47
2019-01-29T11:41:35.268Z,13.00
2019-01-29T11:44:02.049Z,15.87
2019-01-29T11:46:28.803Z,12.33
2019-01-29T11:48:55.568Z,15.73
2019-01-29T11:51:22.309Z,17.90
2019-01-29T11:53:49.068Z,14.20
2019-01-29T11:56:15.828Z,16.63
2019-01-29T11:58:42.667Z,17.73
2019-01-29T12:01:10.702Z,19.07
2019-01-29T12:03:37.444Z,15.80
2019-01-29T12:06:04.216Z,15.30
2019-01-29T12:08:30.953Z,11.20
2019-01-29T12:10:57.712Z,18.60
2019-01-29T12:13:24.456Z,12.57
2019-01-29T12:15:51.212Z,11.37
2019-01-29T12:18:17.949Z,8.43
2019-01-29T12:20:44.703Z,9.23
2019-01-29T12:23:11.463Z,11.80
2019-01-29T12:25:38.232Z,9.13
2019-01-29T12:28:05.080Z,11.60
2019-01-29T12:30:31.836Z,10.67
2019-01-29T12:32:59.140Z,10.43
2019-01-29T12:35:25.909Z,9.83
2019-01-29T12:37:52.660Z,9.33
2019-01-29T12:40:19.416Z,7.33
2019-01-29T12:42:46.151Z,15.20
2019-01-29T12:45:13.080Z,10.50
2019-01-29T12:47:39.979Z,10.30
2019-01-29T12:50:09.509Z,9.63
2019-01-29T12:52:47.608Z,7.20
2019-01-29T12:55:14.367Z,12.53
2019-01-29T12:57:41.120Z,8.47
2019-01-29T13:00:09.796Z,9.13
2019-01-29T13:02:36.550Z,14.13
2019-01-29T13:05:04.492Z,11.40
2019-01-29T13:07:31.244Z,9.83
2019-01-29T13:09:58.911Z,8.20
2019-01-29T13:12:25.072Z,5.90
2019-01-29T13:14:51.832Z,4.13
2019-01-29T13:17:18.588Z,8.00
2019-01-29T13:19:45.351Z,6.70
2019-01-29T13:22:12.200Z,9.53
2019-01-29T13:24:39.136Z,7.93
2019-01-29T13:27:05.996Z,8.13
2019-01-29T13:29:32.772Z,6.43
2019-01-29T13:31:59.549Z,6.17
2019-01-29T13:34:26.279Z,8.57
2019-01-29T13:36:53.069Z,6.47
2019-01-29T13:39:19.897Z,8.30
2019-01-29T13:41:46.668Z,9.20
2019-01-29T13:44:13.434Z,10.43
2019-01-29T13:46:40.341Z,6.90
2019-01-29T13:49:07.190Z,9.00
2019-01-29T13:51:34.128Z,9.27
2019-01-29T13:54:00.986Z,10.10
2019-01-29T13:56:27.849Z,7.17
2019-01-29T13:58:54.698Z,9.20
2019-01-29T14:01:21.566Z,8.23
2019-01-29T14:03:48.441Z,8.20
2019-01-29T14:06:15.302Z,6.50
2019-01-29T14:08:42.144Z,11.70
2019-01-29T14:11:09.030Z,10.00
2019-01-29T14:13:35.873Z,5.47
2019-01-29T14:16:05.921Z,7.43
2019-01-29T14:18:32.775Z,8.93
2019-01-29T14:21:00.234Z,5.37
2019-01-29T14:23:27.114Z,6.40
2019-01-29T14:25:53.994Z,5.57
2019-01-29T14:28:20.846Z,6.30
2019-01-29T14:30:47.715Z,3.17
2019-01-29T14:33:14.554Z,6.80
2019-01-29T14:35:41.423Z,5.33
2019-01-29T14:38:44.278Z,8.90
2019-01-29T14:41:11.230Z,2.80
2019-01-29T14:43:38.217Z,4.40
2019-01-29T14:46:05.094Z,2.50
2019-01-29T14:48:31.971Z,3.20
2019-01-29T14:50:58.838Z,3.00
2019-01-29T14:53:25.722Z,2.50
2019-01-29T14:55:52.566Z,5.90
2019-01-29T14:58:19.413Z,3.73
2019-01-29T15:00:46.297Z,3.77
2019-01-29T15:03:13.137Z,6.30
2019-01-29T15:05:40.082Z,5.73
2019-01-29T15:08:06.939Z,5.50
2019-01-29T15:10:33.799Z,5.37
2019-01-29T15:13:00.659Z,5.47
2019-01-29T15:15:27.546Z,5.00
2019-01-29T15:17:57.854Z,5.80
2019-01-29T15:20:24.691Z,5.78
2019-01-29T15:22:51.558Z,4.80
2019-01-29T15:25:18.402Z,3.70
2019-01-29T15:27:45.277Z,4.40
2019-01-29T15:30:15.767Z,4.43
2019-01-29T15:32:42.629Z,6.70
2019-01-29T15:35:09.503Z,7.13
2019-01-29T15:37:36.370Z,8.13
2019-01-29T15:40:04.066Z,22.17
2019-01-29T15:42:30.974Z,8.60
2019-01-29T15:44:59.010Z,5.00
2019-01-29T15:47:24.703Z,5.83
2019-01-29T15:49:51.541Z,14.83
2019-01-29T15:52:18.401Z,10.63
2019-01-29T15:54:45.238Z,6.43
2019-01-29T15:57:14.238Z,7.03
2019-01-29T15:59:42.904Z,9.97
2019-01-29T16:02:05.838Z,8.07
2019-01-29T16:04:32.678Z,29.73
2019-01-29T16:06:59.537Z,14.57
2019-01-29T16:09:26.413Z,10.30
2019-01-29T16:11:53.258Z,8.20
2019-01-29T16:14:20.102Z,3.30
2019-01-29T16:16:46.982Z,4.80
2019-01-29T16:19:13.825Z,3.17
2019-01-29T16:21:40.691Z,4.40
2019-01-29T16:24:07.531Z,3.97
2019-01-29T16:26:34.469Z,6.90
2019-01-29T16:29:01.307Z,7.00
2019-01-29T16:31:28.150Z,5.23
2019-01-29T16:33:55.015Z,4.23
2019-01-29T16:36:21.894Z,4.37
2019-01-29T16:38:48.798Z,5.65
2019-01-29T16:41:15.677Z,9.67
2019-01-29T16:43:42.522Z,7.62
2019-01-29T16:46:09.362Z,5.10
2019-01-29T16:48:36.226Z,5.17
2019-01-29T16:51:03.067Z,9.40
2019-01-29T16:53:29.940Z,6.67
2019-01-29T16:55:56.782Z,4.67
2019-01-29T16:58:23.758Z,4.80
2019-01-29T17:00:50.722Z,9.40
2019-01-29T17:03:17.594Z,13.90
2019-01-29T17:05:44.430Z,12.37
2019-01-29T17:08:12.016Z,10.80
2019-01-29T17:10:38.318Z,7.17
2019-01-29T17:13:05.246Z,5.63
2019-01-29T17:15:32.119Z,10.33
2019-01-29T17:17:59.046Z,11.80
2019-01-29T17:20:29.910Z,11.83
2019-01-29T17:22:56.865Z,15.83
2019-01-29T17:25:23.706Z,10.57
2019-01-29T17:27:50.746Z,11.53
2019-01-29T17:30:21.898Z,11.15
2019-01-29T17:32:48.835Z,10.30
2019-01-29T17:35:15.764Z,7.55
2019-01-29T17:37:42.625Z,6.87
2019-01-29T17:40:10.287Z,5.77
2019-01-29T17:42:37.318Z,7.03
2019-01-29T17:45:05.410Z,6.10
2019-01-29T17:47:32.271Z,6.47
2019-01-29T17:49:59.115Z,11.00
2019-01-29T17:52:26.063Z,9.10
2019-01-29T17:54:52.907Z,24.72
2019-01-29T17:57:19.750Z,9.30
2019-01-29T17:59:46.609Z,11.73
2019-01-29T18:02:13.461Z,9.40
2019-01-29T18:04:40.318Z,5.07
2019-01-29T18:07:07.266Z,6.00
2019-01-29T18:09:34.150Z,8.50
2019-01-29T18:12:00.995Z,14.03
2019-01-29T18:14:27.907Z,15.55
2019-01-29T18:16:54.751Z,12.45
2019-01-29T18:19:21.606Z,9.90
2019-01-29T18:21:56.585Z,10.32
2019-01-29T18:24:15.306Z,8.03
2019-01-29T18:26:42.146Z,7.40
2019-01-29T18:29:09.002Z,5.90
2019-01-29T18:31:35.841Z,6.40
2019-01-29T18:34:02.699Z,7.30
2019-01-29T18:36:29.586Z,7.30
2019-01-29T18:38:56.454Z,7.37
2019-01-29T18:41:23.303Z,9.50
2019-01-29T18:43:50.198Z,6.43
2019-01-29T18:46:17.043Z,7.30
2019-01-29T18:48:43.894Z,5.90
2019-01-29T18:51:10.761Z,9.80
2019-01-29T18:53:37.616Z,20.17
2019-01-29T18:56:04.470Z,19.33
2019-01-29T18:58:31.325Z,16.23
2019-01-29T19:00:58.172Z,11.53
2019-01-29T19:03:25.002Z,10.48
2019-01-29T19:05:51.833Z,9.90
2019-01-29T19:08:18.693Z,9.97
2019-01-29T19:10:45.542Z,8.63
2019-01-29T19:13:12.398Z,9.93
2019-01-29T19:15:39.294Z,6.57
2019-01-29T19:18:06.230Z,8.47
2019-01-29T19:20:33.156Z,6.13
2019-01-29T19:22:59.991Z,4.43
2019-01-29T19:25:26.858Z,11.87
2019-01-29T19:27:53.727Z,7.10
2019-01-29T19:30:22.814Z,8.73
2019-01-29T19:32:49.776Z,8.00
2019-01-29T19:35:16.665Z,8.27
2019-01-29T19:37:43.672Z,7.97
2019-01-29T19:40:10.923Z,6.70
2019-01-29T19:42:37.786Z,10.48
2019-01-29T19:45:08.234Z,9.10
2019-01-29T19:47:35.332Z,9.97
2019-01-29T19:50:02.591Z,10.20
2019-01-29T19:52:29.491Z,10.50
2019-01-29T19:54:56.338Z,15.13
2019-01-29T19:57:24.885Z,13.28
2019-01-29T19:59:50.190Z,13.68
2019-01-29T20:02:17.322Z,12.30
2019-01-29T20:04:44.207Z,16.60
2019-01-29T20:07:11.138Z,14.10
2019-01-29T20:09:38.011Z,14.83
2019-01-29T20:12:04.853Z,15.03
2019-01-29T20:14:31.769Z,8.60
2019-01-29T20:16:58.598Z,9.18
2019-01-29T20:19:26.102Z,13.33
2019-01-29T20:21:52.934Z,9.85
2019-01-29T20:24:19.807Z,10.63
2019-01-29T20:26:46.750Z,7.25
2019-01-29T20:29:13.725Z,9.00
2019-01-29T20:31:40.542Z,9.33
2019-01-29T20:34:07.385Z,11.37
2019-01-29T20:36:34.326Z,9.50
2019-01-29T20:39:01.172Z,7.83
2019-01-29T20:41:28.038Z,6.47
2019-01-29T20:43:54.889Z,7.80
2019-01-29T20:46:21.755Z,13.17
2019-01-29T20:48:48.731Z,12.07
2019-01-29T20:51:15.648Z,12.40
2019-01-29T20:53:42.819Z,9.20
2019-01-29T20:56:11.049Z,8.83
2019-01-29T20:58:37.862Z,10.55
2019-01-29T21:01:04.833Z,10.78
2019-01-29T21:03:31.671Z,12.30
2019-01-29T21:05:58.581Z,12.43
2019-01-29T21:08:25.470Z,10.98
2019-01-29T21:10:52.335Z,11.70
2019-01-29T21:13:19.158Z,12.75
2019-01-29T21:15:46.022Z,11.85
2019-01-29T21:18:12.883Z,34.50
2019-01-29T21:20:39.828Z,15.58
2019-01-29T21:23:06.769Z,12.70
2019-01-29T21:25:33.698Z,13.13
2019-01-29T21:28:00.562Z,10.23
2019-01-29T21:30:34.094Z,12.20
2019-01-29T21:33:00.922Z,12.87
2019-01-29T21:35:27.842Z,13.65
2019-01-29T21:37:54.814Z,14.18
2019-01-29T21:40:21.698Z,12.33
2019-01-29T21:42:48.573Z,15.80
2019-01-29T21:45:15.503Z,15.13
2019-01-29T21:47:42.374Z,13.10
2019-01-29T21:50:13.622Z,15.72
2019-01-29T21:52:40.462Z,13.10
2019-01-29T21:55:07.925Z,11.00
2019-01-29T21:57:34.726Z,12.18
2019-01-29T22:00:01.611Z,9.38
2019-01-29T22:02:28.478Z,14.57
2019-01-29T22:04:55.305Z,12.35
2019-01-29T22:07:22.197Z,11.70
2019-01-29T22:09:49.082Z,9.73
2019-01-29T22:12:15.938Z,9.70
2019-01-29T22:14:42.778Z,9.30
2019-01-29T22:17:09.621Z,12.15
2019-01-29T22:19:36.463Z,11.50
2019-01-29T22:22:03.312Z,10.10
2019-01-29T22:24:30.147Z,8.40
2019-01-29T22:26:56.993Z,8.70
2019-01-29T22:29:23.826Z,9.47
2019-01-29T22:31:50.687Z,7.50
2019-01-29T22:34:17.502Z,8.05
2019-01-29T22:36:44.342Z,7.03
2019-01-29T22:39:11.171Z,8.00
2019-01-29T22:41:38.022Z,9.65
2019-01-29T22:44:04.888Z,8.87
2019-01-29T22:46:31.729Z,8.10
2019-01-29T22:48:58.560Z,13.17
2019-01-29T22:51:25.398Z,8.38
2019-01-29T22:53:52.229Z,9.00
2019-01-29T22:56:19.085Z,9.65
2019-01-29T22:58:45.917Z,9.30
2019-01-29T23:01:33.793Z,8.90
2019-01-29T23:04:09.806Z,8.83
2019-01-29T23:06:46.096Z,6.83
2019-01-29T23:09:12.956Z,7.80
2019-01-29T23:11:39.830Z,9.40
2019-01-29T23:14:06.757Z,9.73
2019-01-29T23:16:33.630Z,10.35
2019-01-29T23:19:00.460Z,9.25
2019-01-29T23:21:27.319Z,9.33
2019-01-29T23:23:54.162Z,8.33
2019-01-29T23:26:21.038Z,8.43
2019-01-29T23:28:47.866Z,10.40
2019-01-29T23:31:14.762Z,10.53
2019-01-29T23:33:41.587Z,10.35
2019-01-29T23:36:08.434Z,8.95
2019-01-29T23:38:35.294Z,10.00
2019-01-29T23:41:02.125Z,11.63
2019-01-29T23:43:28.973Z,9.93
2019-01-29T23:45:55.806Z,13.68
2019-01-29T23:48:22.649Z,8.47
2019-01-29T23:50:49.485Z,9.85
2019-01-29T23:53:16.330Z,14.47
2019-01-29T23:55:43.173Z,9.73
2019-01-29T23:58:10.026Z,8.83
